sensor_id;sensor_type;location;lat;lon;timestamp;P1;durP1;ratioP1;P2;durP2;ratioP2
6354;SDS011;3210;48.708;9.030;2023-04-23T00:00:38;4.60;;;2.47;;
6354;SDS011;3210;48.708;9.030;2023-04-23T00:03:06;4.60;;;2.03;;
6354;SDS011;3210;48.708;9.030;2023-04-23T00:05:35;6.47;;;2.00;;
6354;SDS011;3210;48.708;9.030;2023-04-23T00:08:04;7.40;;;2.00;;
6354;SDS011;3210;48.708;9.030;2023-04-23T00:10:31;2.60;;;1.63;;
6354;SDS011;3210;48.708;9.030;2023-04-23T00:12:58;3.70;;;2.00;;
6354;SDS011;3210;48.708;9.030;2023-04-23T00:15:25;6.80;;;1.97;;
6354;SDS011;3210;48.708;9.030;2023-04-23T00:17:52;2.30;;;2.00;;
6354;SDS011;3210;48.708;9.030;2023-04-23T00:20:19;1.70;;;1.60;;
6354;SDS011;3210;48.708;9.030;2023-04-23T00:22:46;3.93;;;1.80;;
6354;SDS011;3210;48.708;9.030;2023-04-23T00:25:15;5.13;;;1.43;;
6354;SDS011;3210;48.708;9.030;2023-04-23T00:27:41;3.53;;;1.40;;
6354;SDS011;3210;48.708;9.030;2023-04-23T00:30:08;4.93;;;1.97;;
6354;SDS011;3210;48.708;9.030;2023-04-23T00:32:36;4.03;;;1.90;;
6354;SDS011;3210;48.708;9.030;2023-04-23T00:35:03;4.30;;;2.03;;
6354;SDS011;3210;48.708;9.030;2023-04-23T00:37:30;4.60;;;1.90;;
6354;SDS011;3210;48.708;9.030;2023-04-23T00:39:57;2.70;;;1.50;;
6354;SDS011;3210;48.708;9.030;2023-04-23T00:42:25;2.40;;;1.70;;
6354;SDS011;3210;48.708;9.030;2023-04-23T00:44:52;4.30;;;1.87;;
6354;SDS011;3210;48.708;9.030;2023-04-23T00:47:20;9.37;;;1.77;;
6354;SDS011;3210;48.708;9.030;2023-04-23T00:49:47;1.43;;;1.33;;
6354;SDS011;3210;48.708;9.030;2023-04-23T00:52:17;3.00;;;1.50;;
6354;SDS011;3210;48.708;9.030;2023-04-23T00:54:43;6.93;;;1.40;;
6354;SDS011;3210;48.708;9.030;2023-04-23T00:57:10;5.53;;;1.97;;
6354;SDS011;3210;48.708;9.030;2023-04-23T00:59:38;3.03;;;1.90;;
6354;SDS011;3210;48.708;9.030;2023-04-23T01:02:06;1.97;;;1.67;;
6354;SDS011;3210;48.708;9.030;2023-04-23T01:04:33;3.13;;;1.50;;
6354;SDS011;3210;48.708;9.030;2023-04-23T01:07:02;2.57;;;1.60;;
6354;SDS011;3210;48.708;9.030;2023-04-23T01:09:29;5.50;;;2.13;;
6354;SDS011;3210;48.708;9.030;2023-04-23T01:11:56;2.63;;;1.50;;
6354;SDS011;3210;48.708;9.030;2023-04-23T01:14:26;2.73;;;2.00;;
6354;SDS011;3210;48.708;9.030;2023-04-23T01:16:54;2.40;;;2.10;;
6354;SDS011;3210;48.708;9.030;2023-04-23T01:19:22;4.03;;;1.50;;
6354;SDS011;3210;48.708;9.030;2023-04-23T01:21:49;5.90;;;2.10;;
6354;SDS011;3210;48.708;9.030;2023-04-23T01:24:18;4.67;;;1.50;;
6354;SDS011;3210;48.708;9.030;2023-04-23T01:26:45;6.60;;;2.17;;
6354;SDS011;3210;48.708;9.030;2023-04-23T01:29:12;1.97;;;1.50;;
6354;SDS011;3210;48.708;9.030;2023-04-23T01:31:39;3.13;;;1.77;;
6354;SDS011;3210;48.708;9.030;2023-04-23T01:34:08;3.13;;;1.63;;
6354;SDS011;3210;48.708;9.030;2023-04-23T01:36:35;7.23;;;1.50;;
6354;SDS011;3210;48.708;9.030;2023-04-23T01:39:03;2.23;;;1.77;;
6354;SDS011;3210;48.708;9.030;2023-04-23T01:41:32;2.30;;;2.03;;
6354;SDS011;3210;48.708;9.030;2023-04-23T01:43:59;1.77;;;1.63;;
6354;SDS011;3210;48.708;9.030;2023-04-23T01:46:26;1.40;;;1.27;;
6354;SDS011;3210;48.708;9.030;2023-04-23T01:48:54;2.27;;;2.07;;
6354;SDS011;3210;48.708;9.030;2023-04-23T01:51:21;3.57;;;1.20;;
6354;SDS011;3210;48.708;9.030;2023-04-23T01:53:49;2.20;;;1.70;;
6354;SDS011;3210;48.708;9.030;2023-04-23T01:56:16;3.33;;;2.00;;
6354;SDS011;3210;48.708;9.030;2023-04-23T01:58:49;1.70;;;1.50;;
6354;SDS011;3210;48.708;9.030;2023-04-23T02:01:16;1.80;;;1.57;;
6354;SDS011;3210;48.708;9.030;2023-04-23T02:03:43;3.13;;;1.43;;
6354;SDS011;3210;48.708;9.030;2023-04-23T02:06:10;3.83;;;2.30;;
6354;SDS011;3210;48.708;9.030;2023-04-23T02:08:38;1.83;;;1.73;;
6354;SDS011;3210;48.708;9.030;2023-04-23T02:11:05;4.10;;;1.63;;
6354;SDS011;3210;48.708;9.030;2023-04-23T02:13:31;3.83;;;1.60;;
6354;SDS011;3210;48.708;9.030;2023-04-23T02:16:00;1.63;;;1.50;;
6354;SDS011;3210;48.708;9.030;2023-04-23T02:18:26;1.50;;;1.40;;
6354;SDS011;3210;48.708;9.030;2023-04-23T02:20:53;1.50;;;1.37;;
6354;SDS011;3210;48.708;9.030;2023-04-23T02:23:22;4.50;;;1.13;;
6354;SDS011;3210;48.708;9.030;2023-04-23T02:25:49;1.57;;;1.47;;
6354;SDS011;3210;48.708;9.030;2023-04-23T02:28:16;1.17;;;1.00;;
6354;SDS011;3210;48.708;9.030;2023-04-23T02:30:43;1.67;;;1.20;;
6354;SDS011;3210;48.708;9.030;2023-04-23T02:33:13;2.97;;;1.40;;
6354;SDS011;3210;48.708;9.030;2023-04-23T02:35:40;1.07;;;0.97;;
6354;SDS011;3210;48.708;9.030;2023-04-23T02:38:06;3.40;;;1.70;;
6354;SDS011;3210;48.708;9.030;2023-04-23T02:40:33;2.63;;;1.43;;
6354;SDS011;3210;48.708;9.030;2023-04-23T02:43:00;1.50;;;1.40;;
6354;SDS011;3210;48.708;9.030;2023-04-23T02:45:27;1.63;;;1.40;;
6354;SDS011;3210;48.708;9.030;2023-04-23T02:47:53;2.90;;;0.93;;
6354;SDS011;3210;48.708;9.030;2023-04-23T02:50:22;1.30;;;1.20;;
6354;SDS011;3210;48.708;9.030;2023-04-23T02:52:48;1.67;;;1.03;;
6354;SDS011;3210;48.708;9.030;2023-04-23T02:55:15;1.00;;;0.90;;
6354;SDS011;3210;48.708;9.030;2023-04-23T02:57:42;1.30;;;1.20;;
6354;SDS011;3210;48.708;9.030;2023-04-23T03:00:09;8.20;;;1.50;;
6354;SDS011;3210;48.708;9.030;2023-04-23T03:02:38;2.30;;;1.37;;
6354;SDS011;3210;48.708;9.030;2023-04-23T03:05:05;1.40;;;1.30;;
6354;SDS011;3210;48.708;9.030;2023-04-23T03:07:34;1.10;;;1.00;;
6354;SDS011;3210;48.708;9.030;2023-04-23T03:10:01;2.70;;;1.30;;
6354;SDS011;3210;48.708;9.030;2023-04-23T03:12:28;1.97;;;1.40;;
6354;SDS011;3210;48.708;9.030;2023-04-23T03:14:54;1.30;;;1.10;;
6354;SDS011;3210;48.708;9.030;2023-04-23T03:17:21;0.90;;;0.80;;
6354;SDS011;3210;48.708;9.030;2023-04-23T03:19:48;1.27;;;1.17;;
6354;SDS011;3210;48.708;9.030;2023-04-23T03:22:15;3.63;;;1.13;;
6354;SDS011;3210;48.708;9.030;2023-04-23T03:24:43;1.50;;;0.97;;
6354;SDS011;3210;48.708;9.030;2023-04-23T03:27:10;0.93;;;0.83;;
6354;SDS011;3210;48.708;9.030;2023-04-23T03:29:36;2.10;;;1.10;;
6354;SDS011;3210;48.708;9.030;2023-04-23T03:32:03;1.00;;;0.90;;
6354;SDS011;3210;48.708;9.030;2023-04-23T03:34:30;1.23;;;0.80;;
6354;SDS011;3210;48.708;9.030;2023-04-23T03:36:57;1.73;;;1.10;;
6354;SDS011;3210;48.708;9.030;2023-04-23T03:39:24;1.10;;;0.93;;
6354;SDS011;3210;48.708;9.030;2023-04-23T03:41:52;1.27;;;1.03;;
6354;SDS011;3210;48.708;9.030;2023-04-23T03:44:19;0.90;;;0.70;;
6354;SDS011;3210;48.708;9.030;2023-04-23T03:46:48;1.20;;;0.80;;
6354;SDS011;3210;48.708;9.030;2023-04-23T03:49:16;1.00;;;0.80;;
6354;SDS011;3210;48.708;9.030;2023-04-23T03:51:43;2.30;;;1.00;;
6354;SDS011;3210;48.708;9.030;2023-04-23T03:54:09;1.47;;;1.27;;
6354;SDS011;3210;48.708;9.030;2023-04-23T03:56:36;1.27;;;1.17;;
6354;SDS011;3210;48.708;9.030;2023-04-23T03:59:04;2.63;;;1.27;;
6354;SDS011;3210;48.708;9.030;2023-04-23T04:01:31;1.60;;;0.70;;
6354;SDS011;3210;48.708;9.030;2023-04-23T04:04:00;1.30;;;1.20;;
6354;SDS011;3210;48.708;9.030;2023-04-23T04:06:27;2.67;;;1.50;;
6354;SDS011;3210;48.708;9.030;2023-04-23T04:08:53;1.37;;;1.00;;
6354;SDS011;3210;48.708;9.030;2023-04-23T04:11:20;2.40;;;1.53;;
6354;SDS011;3210;48.708;9.030;2023-04-23T04:13:47;3.63;;;1.47;;
6354;SDS011;3210;48.708;9.030;2023-04-23T04:16:15;2.20;;;0.93;;
6354;SDS011;3210;48.708;9.030;2023-04-23T04:18:42;1.20;;;1.10;;
6354;SDS011;3210;48.708;9.030;2023-04-23T04:21:08;1.13;;;1.03;;
6354;SDS011;3210;48.708;9.030;2023-04-23T04:23:35;2.20;;;1.10;;
6354;SDS011;3210;48.708;9.030;2023-04-23T04:26:02;1.13;;;1.03;;
6354;SDS011;3210;48.708;9.030;2023-04-23T04:28:29;1.47;;;1.00;;
6354;SDS011;3210;48.708;9.030;2023-04-23T04:31:00;7.07;;;1.40;;
6354;SDS011;3210;48.708;9.030;2023-04-23T04:33:28;1.27;;;1.17;;
6354;SDS011;3210;48.708;9.030;2023-04-23T04:35:55;1.30;;;1.20;;
6354;SDS011;3210;48.708;9.030;2023-04-23T04:38:23;1.40;;;1.30;;
6354;SDS011;3210;48.708;9.030;2023-04-23T04:40:50;6.27;;;1.43;;
6354;SDS011;3210;48.708;9.030;2023-04-23T04:43:19;2.60;;;1.20;;
6354;SDS011;3210;48.708;9.030;2023-04-23T04:45:46;1.33;;;1.03;;
6354;SDS011;3210;48.708;9.030;2023-04-23T04:48:13;1.13;;;1.00;;
6354;SDS011;3210;48.708;9.030;2023-04-23T04:50:41;1.67;;;1.10;;
6354;SDS011;3210;48.708;9.030;2023-04-23T04:53:08;1.67;;;1.20;;
6354;SDS011;3210;48.708;9.030;2023-04-23T04:55:35;1.63;;;1.43;;
6354;SDS011;3210;48.708;9.030;2023-04-23T04:58:01;1.20;;;0.90;;
6354;SDS011;3210;48.708;9.030;2023-04-23T05:00:28;1.27;;;1.17;;
6354;SDS011;3210;48.708;9.030;2023-04-23T05:02:56;1.10;;;0.90;;
6354;SDS011;3210;48.708;9.030;2023-04-23T05:05:23;2.80;;;1.30;;
6354;SDS011;3210;48.708;9.030;2023-04-23T05:07:52;1.10;;;1.00;;
6354;SDS011;3210;48.708;9.030;2023-04-23T05:10:23;1.40;;;1.20;;
6354;SDS011;3210;48.708;9.030;2023-04-23T05:12:49;1.50;;;1.40;;
6354;SDS011;3210;48.708;9.030;2023-04-23T05:15:16;1.47;;;1.33;;
6354;SDS011;3210;48.708;9.030;2023-04-23T05:17:43;1.03;;;0.93;;
6354;SDS011;3210;48.708;9.030;2023-04-23T05:20:10;0.83;;;0.83;;
6354;SDS011;3210;48.708;9.030;2023-04-23T05:22:37;1.30;;;1.20;;
6354;SDS011;3210;48.708;9.030;2023-04-23T05:25:07;1.23;;;1.13;;
6354;SDS011;3210;48.708;9.030;2023-04-23T05:27:35;1.33;;;1.10;;
6354;SDS011;3210;48.708;9.030;2023-04-23T05:30:03;0.90;;;0.80;;
6354;SDS011;3210;48.708;9.030;2023-04-23T05:32:32;1.20;;;1.10;;
6354;SDS011;3210;48.708;9.030;2023-04-23T05:34:59;1.00;;;0.77;;
6354;SDS011;3210;48.708;9.030;2023-04-23T05:37:26;1.00;;;0.80;;
6354;SDS011;3210;48.708;9.030;2023-04-23T05:39:53;1.87;;;0.80;;
6354;SDS011;3210;48.708;9.030;2023-04-23T05:42:22;2.27;;;1.40;;
6354;SDS011;3210;48.708;9.030;2023-04-23T05:44:50;1.10;;;1.00;;
6354;SDS011;3210;48.708;9.030;2023-04-23T05:47:16;1.43;;;1.20;;
6354;SDS011;3210;48.708;9.030;2023-04-23T05:49:43;1.00;;;0.87;;
6354;SDS011;3210;48.708;9.030;2023-04-23T05:52:10;0.83;;;0.77;;
6354;SDS011;3210;48.708;9.030;2023-04-23T05:54:37;1.53;;;0.73;;
6354;SDS011;3210;48.708;9.030;2023-04-23T05:57:04;0.80;;;0.60;;
6354;SDS011;3210;48.708;9.030;2023-04-23T05:59:32;4.93;;;0.70;;
6354;SDS011;3210;48.708;9.030;2023-04-23T06:01:59;1.07;;;0.70;;
6354;SDS011;3210;48.708;9.030;2023-04-23T06:04:26;0.90;;;0.60;;
6354;SDS011;3210;48.708;9.030;2023-04-23T06:06:52;0.67;;;0.40;;
6354;SDS011;3210;48.708;9.030;2023-04-23T06:09:19;1.27;;;0.87;;
6354;SDS011;3210;48.708;9.030;2023-04-23T06:11:46;1.43;;;0.60;;
6354;SDS011;3210;48.708;9.030;2023-04-23T06:14:14;1.17;;;0.80;;
6354;SDS011;3210;48.708;9.030;2023-04-23T06:16:42;1.43;;;0.80;;
6354;SDS011;3210;48.708;9.030;2023-04-23T06:19:09;1.00;;;0.70;;
6354;SDS011;3210;48.708;9.030;2023-04-23T06:21:36;1.47;;;0.60;;
6354;SDS011;3210;48.708;9.030;2023-04-23T06:24:04;0.80;;;0.70;;
6354;SDS011;3210;48.708;9.030;2023-04-23T06:26:32;1.43;;;0.80;;
6354;SDS011;3210;48.708;9.030;2023-04-23T06:28:58;0.80;;;0.50;;
6354;SDS011;3210;48.708;9.030;2023-04-23T06:31:26;1.13;;;0.80;;
6354;SDS011;3210;48.708;9.030;2023-04-23T06:33:54;1.23;;;0.60;;
6354;SDS011;3210;48.708;9.030;2023-04-23T06:36:21;0.80;;;0.50;;
6354;SDS011;3210;48.708;9.030;2023-04-23T06:38:47;1.43;;;0.80;;
6354;SDS011;3210;48.708;9.030;2023-04-23T06:41:14;1.70;;;0.60;;
6354;SDS011;3210;48.708;9.030;2023-04-23T06:43:41;0.87;;;0.63;;
6354;SDS011;3210;48.708;9.030;2023-04-23T06:46:09;1.00;;;0.70;;
6354;SDS011;3210;48.708;9.030;2023-04-23T06:48:36;0.70;;;0.60;;
6354;SDS011;3210;48.708;9.030;2023-04-23T06:51:04;0.80;;;0.53;;
6354;SDS011;3210;48.708;9.030;2023-04-23T06:53:31;0.80;;;0.60;;
6354;SDS011;3210;48.708;9.030;2023-04-23T06:55:58;0.90;;;0.70;;
6354;SDS011;3210;48.708;9.030;2023-04-23T06:58:25;0.80;;;0.47;;
6354;SDS011;3210;48.708;9.030;2023-04-23T07:00:55;1.40;;;0.67;;
6354;SDS011;3210;48.708;9.030;2023-04-23T07:03:23;0.87;;;0.60;;
6354;SDS011;3210;48.708;9.030;2023-04-23T07:05:50;0.83;;;0.73;;
6354;SDS011;3210;48.708;9.030;2023-04-23T07:08:19;0.80;;;0.60;;
6354;SDS011;3210;48.708;9.030;2023-04-23T07:10:46;0.80;;;0.60;;
6354;SDS011;3210;48.708;9.030;2023-04-23T07:13:13;1.00;;;0.70;;
6354;SDS011;3210;48.708;9.030;2023-04-23T07:15:40;1.10;;;0.60;;
6354;SDS011;3210;48.708;9.030;2023-04-23T07:18:07;0.83;;;0.80;;
6354;SDS011;3210;48.708;9.030;2023-04-23T07:20:34;0.70;;;0.50;;
6354;SDS011;3210;48.708;9.030;2023-04-23T07:23:01;2.83;;;0.90;;
6354;SDS011;3210;48.708;9.030;2023-04-23T07:25:30;3.33;;;0.97;;
6354;SDS011;3210;48.708;9.030;2023-04-23T07:27:57;0.80;;;0.53;;
6354;SDS011;3210;48.708;9.030;2023-04-23T07:30:24;2.30;;;0.80;;
6354;SDS011;3210;48.708;9.030;2023-04-23T07:32:51;4.50;;;1.03;;
6354;SDS011;3210;48.708;9.030;2023-04-23T07:35:19;2.80;;;1.00;;
6354;SDS011;3210;48.708;9.030;2023-04-23T07:37:46;0.93;;;0.83;;
6354;SDS011;3210;48.708;9.030;2023-04-23T07:40:17;0.80;;;0.60;;
6354;SDS011;3210;48.708;9.030;2023-04-23T07:42:47;3.73;;;1.00;;
6354;SDS011;3210;48.708;9.030;2023-04-23T07:45:13;0.70;;;0.53;;
6354;SDS011;3210;48.708;9.030;2023-04-23T07:47:40;3.07;;;1.40;;
6354;SDS011;3210;48.708;9.030;2023-04-23T07:50:07;1.43;;;0.70;;
6354;SDS011;3210;48.708;9.030;2023-04-23T07:52:34;0.70;;;0.63;;
6354;SDS011;3210;48.708;9.030;2023-04-23T07:55:01;0.90;;;0.77;;
6354;SDS011;3210;48.708;9.030;2023-04-23T07:57:28;1.00;;;0.60;;
6354;SDS011;3210;48.708;9.030;2023-04-23T07:59:56;0.83;;;0.83;;
6354;SDS011;3210;48.708;9.030;2023-04-23T08:02:23;0.80;;;0.73;;
6354;SDS011;3210;48.708;9.030;2023-04-23T08:04:51;1.07;;;0.97;;
6354;SDS011;3210;48.708;9.030;2023-04-23T08:07:18;2.50;;;1.00;;
6354;SDS011;3210;48.708;9.030;2023-04-23T08:09:45;1.83;;;1.03;;
6354;SDS011;3210;48.708;9.030;2023-04-23T08:12:12;1.10;;;0.70;;
6354;SDS011;3210;48.708;9.030;2023-04-23T08:14:41;1.10;;;0.93;;
6354;SDS011;3210;48.708;9.030;2023-04-23T08:17:09;3.73;;;0.90;;
6354;SDS011;3210;48.708;9.030;2023-04-23T08:19:36;1.23;;;0.70;;
6354;SDS011;3210;48.708;9.030;2023-04-23T08:22:02;1.23;;;0.80;;
6354;SDS011;3210;48.708;9.030;2023-04-23T08:24:29;0.90;;;0.73;;
6354;SDS011;3210;48.708;9.030;2023-04-23T08:26:56;5.03;;;1.37;;
6354;SDS011;3210;48.708;9.030;2023-04-23T08:29:23;0.90;;;0.80;;
6354;SDS011;3210;48.708;9.030;2023-04-23T08:31:50;1.50;;;1.20;;
6354;SDS011;3210;48.708;9.030;2023-04-23T08:34:18;3.00;;;0.90;;
6354;SDS011;3210;48.708;9.030;2023-04-23T08:36:45;1.63;;;0.80;;
6354;SDS011;3210;48.708;9.030;2023-04-23T08:39:13;1.10;;;1.00;;
6354;SDS011;3210;48.708;9.030;2023-04-23T08:41:40;0.80;;;0.63;;
6354;SDS011;3210;48.708;9.030;2023-04-23T08:44:10;0.80;;;0.60;;
6354;SDS011;3210;48.708;9.030;2023-04-23T08:46:43;1.30;;;0.80;;
6354;SDS011;3210;48.708;9.030;2023-04-23T08:49:11;1.53;;;0.93;;
6354;SDS011;3210;48.708;9.030;2023-04-23T08:51:44;1.07;;;0.97;;
6354;SDS011;3210;48.708;9.030;2023-04-23T08:54:15;1.10;;;1.00;;
6354;SDS011;3210;48.708;9.030;2023-04-23T08:56:46;6.90;;;2.10;;
6354;SDS011;3210;48.708;9.030;2023-04-23T08:59:13;1.73;;;1.23;;
6354;SDS011;3210;48.708;9.030;2023-04-23T09:01:42;2.40;;;0.93;;
6354;SDS011;3210;48.708;9.030;2023-04-23T09:04:09;6.10;;;0.87;;
6354;SDS011;3210;48.708;9.030;2023-04-23T09:06:40;3.73;;;1.23;;
6354;SDS011;3210;48.708;9.030;2023-04-23T09:09:09;1.73;;;0.90;;
6354;SDS011;3210;48.708;9.030;2023-04-23T09:11:37;1.30;;;0.70;;
6354;SDS011;3210;48.708;9.030;2023-04-23T09:14:05;2.07;;;0.80;;
6354;SDS011;3210;48.708;9.030;2023-04-23T09:16:31;3.13;;;1.70;;
6354;SDS011;3210;48.708;9.030;2023-04-23T09:18:58;1.90;;;1.17;;
6354;SDS011;3210;48.708;9.030;2023-04-23T09:21:25;3.37;;;1.30;;
6354;SDS011;3210;48.708;9.030;2023-04-23T09:23:53;1.33;;;1.23;;
6354;SDS011;3210;48.708;9.030;2023-04-23T09:26:20;0.93;;;0.83;;
6354;SDS011;3210;48.708;9.030;2023-04-23T09:28:47;1.37;;;0.90;;
6354;SDS011;3210;48.708;9.030;2023-04-23T09:31:18;1.23;;;1.13;;
6354;SDS011;3210;48.708;9.030;2023-04-23T09:33:49;1.60;;;0.90;;
6354;SDS011;3210;48.708;9.030;2023-04-23T09:36:19;0.80;;;0.80;;
6354;SDS011;3210;48.708;9.030;2023-04-23T09:38:47;1.60;;;0.80;;
6354;SDS011;3210;48.708;9.030;2023-04-23T09:41:22;1.10;;;0.87;;
6354;SDS011;3210;48.708;9.030;2023-04-23T09:43:51;1.97;;;1.37;;
6354;SDS011;3210;48.708;9.030;2023-04-23T09:46:30;1.70;;;1.23;;
6354;SDS011;3210;48.708;9.030;2023-04-23T09:48:59;2.40;;;1.20;;
6354;SDS011;3210;48.708;9.030;2023-04-23T09:51:26;1.90;;;0.93;;
6354;SDS011;3210;48.708;9.030;2023-04-23T09:53:54;0.80;;;0.70;;
6354;SDS011;3210;48.708;9.030;2023-04-23T09:56:23;2.53;;;1.33;;
6354;SDS011;3210;48.708;9.030;2023-04-23T09:58:49;0.90;;;0.80;;
6354;SDS011;3210;48.708;9.030;2023-04-23T10:01:16;1.10;;;0.90;;
6354;SDS011;3210;48.708;9.030;2023-04-23T10:03:43;1.53;;;0.97;;
6354;SDS011;3210;48.708;9.030;2023-04-23T10:06:12;7.70;;;1.17;;
6354;SDS011;3210;48.708;9.030;2023-04-23T10:08:40;1.30;;;0.87;;
6354;SDS011;3210;48.708;9.030;2023-04-23T10:11:08;0.77;;;0.57;;
6354;SDS011;3210;48.708;9.030;2023-04-23T10:13:37;1.43;;;0.60;;
6354;SDS011;3210;48.708;9.030;2023-04-23T10:16:05;1.63;;;0.87;;
6354;SDS011;3210;48.708;9.030;2023-04-23T10:18:33;1.10;;;0.90;;
6354;SDS011;3210;48.708;9.030;2023-04-23T10:21:01;0.87;;;0.70;;
6354;SDS011;3210;48.708;9.030;2023-04-23T10:23:29;1.47;;;0.83;;
6354;SDS011;3210;48.708;9.030;2023-04-23T10:25:58;1.20;;;0.93;;
6354;SDS011;3210;48.708;9.030;2023-04-23T10:28:28;1.20;;;0.60;;
6354;SDS011;3210;48.708;9.030;2023-04-23T10:31:00;2.00;;;0.90;;
6354;SDS011;3210;48.708;9.030;2023-04-23T10:33:28;1.60;;;1.00;;
6354;SDS011;3210;48.708;9.030;2023-04-23T10:35:57;1.53;;;0.97;;
6354;SDS011;3210;48.708;9.030;2023-04-23T10:38:24;1.50;;;0.63;;
6354;SDS011;3210;48.708;9.030;2023-04-23T10:40:52;1.03;;;0.80;;
6354;SDS011;3210;48.708;9.030;2023-04-23T10:43:21;3.10;;;1.00;;
6354;SDS011;3210;48.708;9.030;2023-04-23T10:45:48;2.03;;;0.60;;
6354;SDS011;3210;48.708;9.030;2023-04-23T10:48:17;0.97;;;0.60;;
6354;SDS011;3210;48.708;9.030;2023-04-23T10:50:43;2.10;;;0.70;;
6354;SDS011;3210;48.708;9.030;2023-04-23T10:53:17;0.70;;;0.50;;
6354;SDS011;3210;48.708;9.030;2023-04-23T10:55:45;1.17;;;0.60;;
6354;SDS011;3210;48.708;9.030;2023-04-23T10:58:12;0.80;;;0.60;;
6354;SDS011;3210;48.708;9.030;2023-04-23T11:00:43;1.70;;;0.80;;
6354;SDS011;3210;48.708;9.030;2023-04-23T11:03:29;6.20;;;0.80;;
6354;SDS011;3210;48.708;9.030;2023-04-23T11:05:57;1.10;;;0.80;;
6354;SDS011;3210;48.708;9.030;2023-04-23T11:08:27;1.30;;;0.70;;
6354;SDS011;3210;48.708;9.030;2023-04-23T11:10:56;1.03;;;0.90;;
6354;SDS011;3210;48.708;9.030;2023-04-23T11:13:24;1.43;;;0.70;;
6354;SDS011;3210;48.708;9.030;2023-04-23T11:24:24;0.80;;;0.60;;
6354;SDS011;3210;48.708;9.030;2023-04-23T11:26:52;1.60;;;1.20;;
6354;SDS011;3210;48.708;9.030;2023-04-23T11:29:20;0.80;;;0.63;;
6354;SDS011;3210;48.708;9.030;2023-04-23T11:31:48;4.20;;;0.60;;
6354;SDS011;3210;48.708;9.030;2023-04-23T11:34:17;0.90;;;0.50;;
6354;SDS011;3210;48.708;9.030;2023-04-23T11:36:44;1.23;;;0.70;;
6354;SDS011;3210;48.708;9.030;2023-04-23T11:39:12;5.93;;;0.90;;
6354;SDS011;3210;48.708;9.030;2023-04-23T11:41:39;1.00;;;0.67;;
6354;SDS011;3210;48.708;9.030;2023-04-23T11:44:07;0.90;;;0.50;;
6354;SDS011;3210;48.708;9.030;2023-04-23T11:46:35;0.80;;;0.60;;
6354;SDS011;3210;48.708;9.030;2023-04-23T11:49:02;0.93;;;0.83;;
6354;SDS011;3210;48.708;9.030;2023-04-23T11:51:31;1.53;;;0.57;;
6354;SDS011;3210;48.708;9.030;2023-04-23T11:54:01;4.00;;;0.87;;
6354;SDS011;3210;48.708;9.030;2023-04-23T11:56:29;0.90;;;0.73;;
6354;SDS011;3210;48.708;9.030;2023-04-23T11:58:59;1.10;;;0.60;;
6354;SDS011;3210;48.708;9.030;2023-04-23T12:01:38;2.00;;;0.50;;
6354;SDS011;3210;48.708;9.030;2023-04-23T12:04:09;1.23;;;0.93;;
6354;SDS011;3210;48.708;9.030;2023-04-23T12:06:42;0.90;;;0.57;;
6354;SDS011;3210;48.708;9.030;2023-04-23T12:09:11;2.13;;;0.83;;
6354;SDS011;3210;48.708;9.030;2023-04-23T12:11:39;1.40;;;0.80;;
6354;SDS011;3210;48.708;9.030;2023-04-23T12:14:06;1.03;;;0.70;;
6354;SDS011;3210;48.708;9.030;2023-04-23T12:16:35;0.80;;;0.60;;
6354;SDS011;3210;48.708;9.030;2023-04-23T12:19:05;0.73;;;0.40;;
6354;SDS011;3210;48.708;9.030;2023-04-23T12:21:33;2.80;;;0.73;;
6354;SDS011;3210;48.708;9.030;2023-04-23T12:24:03;0.87;;;0.70;;
6354;SDS011;3210;48.708;9.030;2023-04-23T12:26:30;1.30;;;0.50;;
6354;SDS011;3210;48.708;9.030;2023-04-23T12:28:58;1.17;;;0.73;;
6354;SDS011;3210;48.708;9.030;2023-04-23T12:31:26;0.80;;;0.60;;
6354;SDS011;3210;48.708;9.030;2023-04-23T12:33:56;1.87;;;1.00;;
6354;SDS011;3210;48.708;9.030;2023-04-23T12:36:25;2.03;;;0.77;;
6354;SDS011;3210;48.708;9.030;2023-04-23T12:38:54;1.87;;;0.90;;
6354;SDS011;3210;48.708;9.030;2023-04-23T12:41:22;0.80;;;0.77;;
6354;SDS011;3210;48.708;9.030;2023-04-23T12:43:49;2.00;;;0.73;;
6354;SDS011;3210;48.708;9.030;2023-04-23T12:46:16;1.93;;;1.00;;
6354;SDS011;3210;48.708;9.030;2023-04-23T12:48:42;1.27;;;0.83;;
6354;SDS011;3210;48.708;9.030;2023-04-23T12:51:09;1.23;;;0.77;;
6354;SDS011;3210;48.708;9.030;2023-04-23T12:53:36;1.67;;;0.70;;
6354;SDS011;3210;48.708;9.030;2023-04-23T12:56:03;2.17;;;0.60;;
6354;SDS011;3210;48.708;9.030;2023-04-23T12:58:31;0.80;;;0.60;;
6354;SDS011;3210;48.708;9.030;2023-04-23T13:00:58;1.37;;;0.60;;
6354;SDS011;3210;48.708;9.030;2023-04-23T13:03:24;1.20;;;0.70;;
6354;SDS011;3210;48.708;9.030;2023-04-23T13:05:51;0.80;;;0.60;;
6354;SDS011;3210;48.708;9.030;2023-04-23T13:08:18;0.80;;;0.70;;
6354;SDS011;3210;48.708;9.030;2023-04-23T13:10:45;1.33;;;0.67;;
6354;SDS011;3210;48.708;9.030;2023-04-23T13:13:14;0.70;;;0.40;;
6354;SDS011;3210;48.708;9.030;2023-04-23T13:15:42;1.10;;;0.80;;
6354;SDS011;3210;48.708;9.030;2023-04-23T13:18:09;1.97;;;0.63;;
6354;SDS011;3210;48.708;9.030;2023-04-23T13:20:35;0.83;;;0.63;;
6354;SDS011;3210;48.708;9.030;2023-04-23T13:23:02;2.40;;;1.53;;
6354;SDS011;3210;48.708;9.030;2023-04-23T13:25:29;0.80;;;0.60;;
6354;SDS011;3210;48.708;9.030;2023-04-23T13:27:56;1.17;;;0.77;;
6354;SDS011;3210;48.708;9.030;2023-04-23T13:30:22;0.93;;;0.70;;
6354;SDS011;3210;48.708;9.030;2023-04-23T13:32:51;1.00;;;0.90;;
6354;SDS011;3210;48.708;9.030;2023-04-23T13:35:19;2.17;;;0.60;;
6354;SDS011;3210;48.708;9.030;2023-04-23T13:37:46;0.80;;;0.47;;
6354;SDS011;3210;48.708;9.030;2023-04-23T13:40:13;1.20;;;0.60;;
6354;SDS011;3210;48.708;9.030;2023-04-23T13:42:39;1.03;;;0.80;;
6354;SDS011;3210;48.708;9.030;2023-04-23T13:45:06;1.10;;;0.57;;
6354;SDS011;3210;48.708;9.030;2023-04-23T13:47:34;2.50;;;0.50;;
6354;SDS011;3210;48.708;9.030;2023-04-23T13:50:02;0.83;;;0.60;;
6354;SDS011;3210;48.708;9.030;2023-04-23T13:52:30;2.53;;;0.70;;
6354;SDS011;3210;48.708;9.030;2023-04-23T13:54:57;3.43;;;1.10;;
6354;SDS011;3210;48.708;9.030;2023-04-23T13:57:27;0.90;;;0.80;;
6354;SDS011;3210;48.708;9.030;2023-04-23T13:59:54;1.77;;;0.80;;
6354;SDS011;3210;48.708;9.030;2023-04-23T14:02:21;1.20;;;0.60;;
6354;SDS011;3210;48.708;9.030;2023-04-23T14:04:48;1.50;;;0.70;;
6354;SDS011;3210;48.708;9.030;2023-04-23T14:07:17;1.37;;;0.73;;
6354;SDS011;3210;48.708;9.030;2023-04-23T14:09:43;1.10;;;0.53;;
6354;SDS011;3210;48.708;9.030;2023-04-23T14:12:11;3.37;;;0.83;;
6354;SDS011;3210;48.708;9.030;2023-04-23T14:14:38;0.80;;;0.70;;
6354;SDS011;3210;48.708;9.030;2023-04-23T14:17:04;1.70;;;0.70;;
6354;SDS011;3210;48.708;9.030;2023-04-23T14:19:31;2.63;;;1.00;;
6354;SDS011;3210;48.708;9.030;2023-04-23T14:22:00;1.40;;;0.97;;
6354;SDS011;3210;48.708;9.030;2023-04-23T14:24:31;1.87;;;1.23;;
6354;SDS011;3210;48.708;9.030;2023-04-23T14:26:59;2.00;;;0.70;;
6354;SDS011;3210;48.708;9.030;2023-04-23T14:29:28;0.97;;;0.60;;
6354;SDS011;3210;48.708;9.030;2023-04-23T14:31:59;1.00;;;0.60;;
6354;SDS011;3210;48.708;9.030;2023-04-23T14:34:26;1.73;;;1.00;;
6354;SDS011;3210;48.708;9.030;2023-04-23T14:36:53;2.40;;;0.83;;
6354;SDS011;3210;48.708;9.030;2023-04-23T14:39:20;0.90;;;0.80;;
6354;SDS011;3210;48.708;9.030;2023-04-23T14:41:49;2.10;;;0.70;;
6354;SDS011;3210;48.708;9.030;2023-04-23T14:44:16;4.30;;;0.90;;
6354;SDS011;3210;48.708;9.030;2023-04-23T14:46:43;4.70;;;0.90;;
6354;SDS011;3210;48.708;9.030;2023-04-23T14:49:10;10.13;;;2.50;;
6354;SDS011;3210;48.708;9.030;2023-04-23T14:51:37;12.10;;;1.27;;
6354;SDS011;3210;48.708;9.030;2023-04-23T14:54:04;2.17;;;0.60;;
6354;SDS011;3210;48.708;9.030;2023-04-23T14:56:31;6.00;;;1.00;;
6354;SDS011;3210;48.708;9.030;2023-04-23T14:59:00;3.27;;;1.00;;
6354;SDS011;3210;48.708;9.030;2023-04-23T15:01:27;2.90;;;0.90;;
6354;SDS011;3210;48.708;9.030;2023-04-23T15:03:54;1.17;;;1.00;;
6354;SDS011;3210;48.708;9.030;2023-04-23T15:06:21;1.97;;;1.10;;
6354;SDS011;3210;48.708;9.030;2023-04-23T15:08:48;3.03;;;1.43;;
6354;SDS011;3210;48.708;9.030;2023-04-23T15:11:15;3.97;;;0.97;;
6354;SDS011;3210;48.708;9.030;2023-04-23T15:13:48;2.50;;;0.80;;
6354;SDS011;3210;48.708;9.030;2023-04-23T15:16:25;3.03;;;1.17;;
6354;SDS011;3210;48.708;9.030;2023-04-23T15:18:55;2.13;;;0.83;;
6354;SDS011;3210;48.708;9.030;2023-04-23T15:21:22;1.03;;;0.67;;
6354;SDS011;3210;48.708;9.030;2023-04-23T15:23:51;1.47;;;0.80;;
6354;SDS011;3210;48.708;9.030;2023-04-23T15:26:18;2.87;;;0.97;;